Date,TemperatureHighF,TemperatureAvgF,TemperatureLowF,DewpointHighF,DewpointAvgF,DewpointLowF,HumidityHigh,HumidityAvg,HumidityLow,PressureMaxIn,PressureMinIn,WindSpeedMaxMPH,WindSpeedAvgMPH,GustSpeedMaxMPH,PrecipitationSumIn
2013-9-1,98,83,73,73,69,67,84,66,39,30.24,29.89,7,1,7,0.00
2013-9-2,98,82,72,72,68,66,84,65,42,30.20,29.78,10,2,10,0.00
2013-9-3,94,81,74,73,70,68,85,71,47,30.17,29.91,5,1,5,0.05
2013-9-4,99,84,74,77,70,66,85,65,40,30.28,29.91,11,1,11,0.00
2013-9-5,100,85,73,72,69,65,84,61,39,30.30,29.92,8,1,8,0.00
2013-9-6,97,82,70,73,68,64,83,66,42,30.24,29.84,17,1,17,0.74
2013-9-7,96,85,73,70,66,64,77,54,39,30.22,29.83,9,2,9,0.01
2013-9-8,97,77,70,70,65,62,86,68,35,30.23,29.85,9,1,9,0.00
2013-9-9,95,81,69,70,65,63,84,62,36,30.26,29.89,11,2,11,0.00
2013-9-10,93,84,69,70,66,63,83,56,39,30.24,29.92,13,3,13,0.00
2013-9-11,93,83,73,70,67,64,79,60,45,30.29,29.94,12,3,12,0.00
2013-9-12,93,80,72,72,68,65,85,68,47,30.28,29.75,10,1,10,0.02
2013-9-13,95,82,72,71,66,61,83,62,38,30.12,29.64,9,1,9,0.00
2013-9-14,99,83,71,72,67,64,82,61,38,30.04,29.73,8,1,8,0.06
2013-9-15,96,79,74,71,69,66,85,74,43,30.24,29.92,11,1,11,0.01
2013-9-16,98,84,74,73,69,66,86,64,36,30.27,29.85,11,2,11,0.00
2013-9-17,93,80,73,74,68,66,86,68,45,30.24,29.88,11,2,11,0.01
2013-9-18,88,78,72,70,67,63,80,69,51,30.21,29.94,17,3,17,0.01
2013-9-19,92,77,70,70,67,63,83,71,45,30.22,29.91,11,2,11,0.12
2013-9-20,92,77,68,71,65,63,86,68,43,30.20,29.82,8,1,8,0.01
2013-9-21,95,79,69,72,65,64,85,66,38,30.15,29.72,6,1,6,0.00
2013-9-22,85,76,72,70,68,66,83,76,60,30.13,29.76,11,2,11,0.15
2013-9-23,84,75,72,71,69,67,86,80,66,30.26,29.94,5,1,5,0.22
2013-9-24,86,76,74,74,70,69,86,82,62,30.25,29.82,7,1,7,0.38
2013-9-25,89,77,71,71,69,66,87,75,52,30.11,29.84,11,2,11,0.01
2013-9-26,88,77,71,71,67,62,86,73,51,30.21,29.77,17,4,17,0.00
2013-9-27,88,75,67,65,63,60,82,67,45,30.22,29.95,11,4,11,0.00
2013-9-28,79,73,69,66,64,60,83,73,61,30.32,30.06,12,3,12,0.15
2013-9-29,88,75,67,66,63,61,84,68,44,30.32,29.96,11,3,11,0.00
2013-9-30,89,75,68,68,63,60,83,67,47,30.30,29.98,10,2,10,0.00